首页
METAR-TAF:

METAR-TAF

机场 :

爱德华·劳伦斯·洛根将军国际机场

波士顿, 马萨诸塞州, 美国

纬度: 42-21-38N, 经度: 071-00-38W, 海拔: 6米

当前天气观测

该预报发布于11分钟前的03:54 UTC
风速3节,风向南转南东
温度 17°C
湿度 68%
气压 1018 hPa
能見度: 16.1公里
散云层高于14000英尺
多云层高于21000英尺

METAR: KBOS 230354Z 16003KT 10SM SCT140 BKN210 17/11 A3007 RMK AO2 SLP183 T01670106

时间: 00:05 (04:05 UTC)

预报

该预报发布于4小时和43分钟前的23:22 UTC
预报有效从23日的 00点(UTC)到 24日的 06点(UTC)
风速7节,风向南转南东
能見度: 10公里
多云层高于15000英尺
从 23日的 1200点(UTC)
风速7节,风向
能見度: 10公里
阴天层高于8000英尺
附近有阵雨
从 23日的 1600点(UTC)
风速9节,风向
能見度: 6.4公里
阴天层高于1500英尺
小阵雨
从 23日的 2200点(UTC)
风速9节,风向东北
能見度: 3.2公里
阴天层高于800英尺
轻雾, 附近有阵雨
从 24日的 0500点(UTC)
风速5节,风向
能見度: 3.2公里
阴天层高于800英尺
轻雾, 附近有阵雨

TAF: KBOS 222322Z 2300/2406 15007KT P6SM BKN150 FM231200 09007KT P6SM VCSH OVC080 FM231600 08009KT 4SM -SHRA OVC015 FM232200 05009KT 2SM BR VCSH OVC008 FM240500 36005KT 2SM BR VCSH OVC008

超过4000个机场的气象观测和天气预报(METAR&TAF报告)。

可查询的气象台以黄色和红色小点在地图上表示。

将鼠标移到小点上方,可查看气象台名称。

然后点击查看天气观测和预报。

如需切换地图:点击带黑十字的绿色按钮放大地图;点击带横线的绿色按钮缩小地图;或者点击绿色箭头查看邻近地区的地图。


METAR-TAF: